SSA weather

Deputado Luiz Eduardo Magalhães International Airport
Salvador, Bahia, Brazil

Public forecast

Using degrees Celsius for public forecast. Weather courtesy of forecast.io.

METAR (pilot weather report)

Retrieved 2019/05/21 08:00 UTC (55 minutes ago):

SBSV 210800Z 01003KT 330V130 9999 SCT018 FEW022TCU SCT060 25/25 Q1013

TAF (pilot weather forecast)

Retrieved 2019/05/21 06:33 UTC (2 hours ago):

TAF SBSV 210400Z 2106/2206 19005KT 8000 SHRA SCT017 TN25/2108Z TX29/2115Z BECMG 2107/2109 27005KT TEMPO 2109/2112 13008KT SCT015FEW023TCU TEMPO 2119/2121 BKN017 FEW020TCU BECMG 2200/2202 09005KT RMK PED